createdAt,value
2022-10-22T00:05:29.105Z,71.90
2022-10-22T00:10:49.913Z,71.67
2022-10-22T00:16:10.492Z,71.54
2022-10-22T00:21:31.319Z,71.55
2022-10-22T00:26:52.042Z,71.31
2022-10-22T00:32:12.711Z,71.60
2022-10-22T00:37:33.425Z,71.05
2022-10-22T00:42:54.646Z,71.23
2022-10-22T00:48:22.513Z,71.38
2022-10-22T00:53:47.898Z,71.06
2022-10-22T01:04:34.824Z,71.11
2022-10-22T01:10:38.842Z,71.06
2022-10-22T01:16:22.067Z,71.04
2022-10-22T01:21:47.605Z,70.67
2022-10-22T01:27:17.282Z,70.78
2022-10-22T01:32:43.830Z,70.44
2022-10-22T01:38:09.089Z,70.56
2022-10-22T01:43:29.818Z,70.66
2022-10-22T01:48:59.089Z,70.60
2022-10-22T01:54:30.377Z,70.44
2022-10-22T02:00:02.897Z,70.53
2022-10-22T02:05:41.821Z,70.54
2022-10-22T02:11:04.353Z,70.73
2022-10-22T02:16:33.785Z,70.66
2022-10-22T02:21:55.136Z,70.48
2022-10-22T02:27:32.711Z,71.03
2022-10-22T02:33:16.221Z,70.78
2022-10-22T02:38:38.232Z,70.85
2022-10-22T02:43:58.973Z,71.08
2022-10-22T02:49:19.435Z,71.28
2022-10-22T02:54:40.151Z,71.22
2022-10-22T03:00:00.817Z,71.29
2022-10-22T03:05:21.383Z,71.14
2022-10-22T03:10:42.204Z,71.15
2022-10-22T03:16:02.753Z,71.06
2022-10-22T03:21:35.523Z,71.13
2022-10-22T03:26:56.401Z,71.35
2022-10-22T03:32:17.178Z,71.07
2022-10-22T03:37:39.659Z,70.74
2022-10-22T03:43:00.509Z,71.24
2022-10-22T03:48:21.226Z,70.84
2022-10-22T03:53:41.932Z,70.92
2022-10-22T03:59:03.174Z,70.75
2022-10-22T04:04:23.876Z,71.88
2022-10-22T04:09:44.458Z,71.74
2022-10-22T04:15:05.865Z,71.60
2022-10-22T04:20:26.684Z,71.66
2022-10-22T04:25:47.233Z,71.77
2022-10-22T04:31:12.456Z,71.58
2022-10-22T04:36:33.890Z,71.58
2022-10-22T04:41:54.821Z,71.44
2022-10-22T04:47:15.413Z,71.59
2022-10-22T04:52:36.113Z,71.85
2022-10-22T04:57:56.674Z,71.17
2022-10-22T05:03:17.313Z,71.48
2022-10-22T05:08:38.465Z,71.31
2022-10-22T05:14:00.734Z,71.60
2022-10-22T05:19:27.443Z,71.87
2022-10-22T05:24:49.182Z,71.89
2022-10-22T05:30:10.224Z,71.70
2022-10-22T05:35:31.142Z,72.06
2022-10-22T05:41:07.489Z,71.92
2022-10-22T05:46:30.349Z,72.61
2022-10-22T05:51:50.880Z,72.57
2022-10-22T05:57:11.451Z,72.81
2022-10-22T06:02:32.183Z,72.50
2022-10-22T06:07:53.197Z,72.00
2022-10-22T06:13:13.869Z,72.07
2022-10-22T06:18:34.961Z,72.14
2022-10-22T06:23:57.315Z,72.34
2022-10-22T06:29:19.280Z,72.14
2022-10-22T06:34:40.254Z,72.15
2022-10-22T06:40:00.761Z,72.31
2022-10-22T06:45:21.543Z,72.55
2022-10-22T06:50:42.056Z,71.93
2022-10-22T06:56:14.557Z,72.30
2022-10-22T07:01:37.630Z,72.23
2022-10-22T07:06:58.308Z,72.73
2022-10-22T07:12:18.898Z,72.61
2022-10-22T07:23:01.135Z,73.36
2022-10-22T07:28:21.772Z,72.95
2022-10-22T07:33:43.155Z,73.21
2022-10-22T07:39:04.399Z,72.74
2022-10-22T07:44:25.592Z,73.34
2022-10-22T07:49:46.228Z,73.44
2022-10-22T07:55:07.317Z,73.83
2022-10-22T08:00:27.962Z,73.89
2022-10-22T08:05:48.816Z,74.00
2022-10-22T08:11:10.278Z,74.09
2022-10-22T08:16:31.181Z,74.41
2022-10-22T08:21:51.771Z,74.17
2022-10-22T08:27:12.797Z,74.45
2022-10-22T08:32:33.668Z,74.50
2022-10-22T08:37:54.314Z,74.72
2022-10-22T08:44:00.084Z,74.60
2022-10-22T08:49:31.634Z,74.54
2022-10-22T08:54:58.759Z,74.85
2022-10-22T09:00:28.767Z,74.99
2022-10-22T09:06:10.136Z,74.71
2022-10-22T09:11:35.129Z,74.80
2022-10-22T09:17:25.041Z,74.88
2022-10-22T09:22:51.579Z,75.16
2022-10-22T09:28:13.390Z,74.78
2022-10-22T09:33:34.525Z,74.75
2022-10-22T09:38:55.872Z,75.09
2022-10-22T09:44:18.918Z,75.33
2022-10-22T09:49:40.033Z,75.28
2022-10-22T09:55:03.279Z,75.44
2022-10-22T10:00:27.824Z,76.40
2022-10-22T10:05:54.164Z,75.58
2022-10-22T10:11:40.093Z,75.35
2022-10-22T10:17:23.141Z,75.79
2022-10-22T10:22:50.101Z,75.65
2022-10-22T10:28:34.817Z,75.73
2022-10-22T10:34:17.053Z,75.74
2022-10-22T10:39:41.080Z,75.81
2022-10-22T10:45:17.415Z,75.95
2022-10-22T10:51:32.561Z,76.33
2022-10-22T10:56:57.641Z,75.93
2022-10-22T11:08:31.437Z,75.95
2022-10-22T11:14:11.671Z,76.11
2022-10-22T11:19:51.058Z,76.44
2022-10-22T11:25:12.558Z,76.49
2022-10-22T11:30:36.414Z,76.59
2022-10-22T11:35:59.600Z,76.61
2022-10-22T11:41:30.767Z,76.74
2022-10-22T11:46:58.208Z,76.76
2022-10-22T11:52:38.064Z,77.24
2022-10-22T11:58:22.657Z,76.49
2022-10-22T12:03:48.934Z,76.94
2022-10-22T12:09:11.317Z,76.85
2022-10-22T12:14:52.819Z,76.78
2022-10-22T12:20:14.634Z,76.75
2022-10-22T12:25:36.626Z,77.26
2022-10-22T12:31:00.191Z,76.92
2022-10-22T12:36:20.860Z,77.03
2022-10-22T12:41:42.281Z,76.65
2022-10-22T12:47:03.443Z,76.53
2022-10-22T12:52:25.846Z,76.35
2022-10-22T12:57:48.711Z,76.06
2022-10-22T13:03:25.942Z,76.05
2022-10-22T13:08:57.107Z,75.78
2022-10-22T13:14:21.579Z,75.78
2022-10-22T13:19:54.652Z,75.85
2022-10-22T13:25:15.946Z,76.19
2022-10-22T13:30:38.729Z,76.04
2022-10-22T13:35:59.513Z,76.36
2022-10-22T13:41:26.244Z,76.19
2022-10-22T13:46:50.890Z,75.89
2022-10-22T13:52:22.548Z,76.09
2022-10-22T13:57:43.099Z,75.85
2022-10-22T14:03:04.550Z,75.93
2022-10-22T14:08:27.231Z,75.69
2022-10-22T14:13:47.925Z,75.68
2022-10-22T14:19:16.176Z,75.38
2022-10-22T14:24:36.962Z,75.52
2022-10-22T14:29:59.587Z,75.13
2022-10-22T14:35:22.733Z,75.27
2022-10-22T14:40:45.400Z,74.89
2022-10-22T14:46:06.341Z,75.01
2022-10-22T14:51:27.122Z,74.55
2022-10-22T14:56:47.829Z,74.62
2022-10-22T15:02:13.503Z,74.61
2022-10-22T15:07:34.518Z,74.50
2022-10-22T15:12:55.186Z,74.48
2022-10-22T15:18:15.947Z,74.36
2022-10-22T15:23:39.224Z,74.69
2022-10-22T15:29:01.633Z,74.45
2022-10-22T15:34:25.793Z,74.50
2022-10-22T15:39:46.391Z,74.54
2022-10-22T15:45:09.030Z,74.62
2022-10-22T15:50:29.568Z,74.77
2022-10-22T15:55:50.256Z,74.66
2022-10-22T16:01:13.181Z,74.50
2022-10-22T16:06:46.291Z,74.57
2022-10-22T16:12:07.315Z,74.80
2022-10-22T16:17:28.318Z,74.31
2022-10-22T16:22:50.066Z,74.22
2022-10-22T16:28:11.660Z,74.25
2022-10-22T16:33:41.245Z,74.16
2022-10-22T16:39:07.679Z,74.15
2022-10-22T16:44:28.587Z,74.41
2022-10-22T16:49:49.160Z,74.32
2022-10-22T16:55:09.991Z,74.35
2022-10-22T17:00:30.956Z,74.30
2022-10-22T17:05:51.498Z,74.27
2022-10-22T17:11:18.213Z,74.48
2022-10-22T17:16:38.848Z,74.45
2022-10-22T17:21:59.612Z,74.42
2022-10-22T17:27:21.150Z,74.42
2022-10-22T17:32:42.070Z,74.32
2022-10-22T17:38:02.826Z,74.68
2022-10-22T17:43:23.820Z,74.29
2022-10-22T17:48:44.649Z,74.44
2022-10-22T17:54:08.833Z,74.30
2022-10-22T17:59:31.781Z,74.32
2022-10-22T18:04:53.273Z,74.22
2022-10-22T18:10:14.122Z,74.06
2022-10-22T18:15:36.470Z,73.97
2022-10-22T18:20:57.389Z,74.02
2022-10-22T18:26:20.362Z,73.89
2022-10-22T18:31:44.654Z,74.48
2022-10-22T18:37:05.548Z,74.22
2022-10-22T18:42:31.167Z,74.18
2022-10-22T18:47:54.491Z,74.02
2022-10-22T18:53:16.536Z,73.93
2022-10-22T18:58:42.507Z,73.85
2022-10-22T19:04:03.288Z,74.03
2022-10-22T19:09:26.417Z,73.96
2022-10-22T19:14:48.811Z,74.08
2022-10-22T19:20:09.987Z,74.03
2022-10-22T19:25:30.593Z,74.00
2022-10-22T19:30:51.378Z,73.95
2022-10-22T19:36:13.536Z,73.79
2022-10-22T19:41:34.753Z,73.71
2022-10-22T19:46:55.508Z,74.36
2022-10-22T19:52:16.214Z,73.99
2022-10-22T19:57:38.901Z,74.04
2022-10-22T20:03:00.021Z,74.35
2022-10-22T20:08:20.773Z,74.13
2022-10-22T20:13:45.383Z,73.65
2022-10-22T20:19:08.827Z,73.80
2022-10-22T20:24:29.561Z,73.82
2022-10-22T20:29:50.210Z,73.94
2022-10-22T20:35:10.956Z,74.09
2022-10-22T20:40:32.445Z,74.30
2022-10-22T20:45:53.297Z,74.23
2022-10-22T20:51:13.880Z,74.13
2022-10-22T20:56:39.636Z,74.11
2022-10-22T21:02:01.012Z,74.18
2022-10-22T21:07:21.923Z,74.32
2022-10-22T21:12:42.882Z,74.34
2022-10-22T21:18:03.847Z,74.28
2022-10-22T21:23:24.810Z,74.43
2022-10-22T21:28:45.947Z,73.50
2022-10-22T21:34:06.632Z,73.53
2022-10-22T21:39:27.209Z,74.33
2022-10-22T21:44:47.949Z,74.16
2022-10-22T21:50:08.970Z,74.18
2022-10-22T21:55:30.563Z,74.32
2022-10-22T22:00:57.452Z,73.94
2022-10-22T22:06:22.467Z,73.70
2022-10-22T22:11:43.213Z,73.96
2022-10-22T22:17:03.797Z,74.17
2022-10-22T22:22:25.050Z,73.96
2022-10-22T22:27:45.684Z,73.87
2022-10-22T22:33:06.356Z,74.29
2022-10-22T22:38:26.969Z,74.49
2022-10-22T22:43:47.552Z,74.60
2022-10-22T22:49:08.757Z,74.87
2022-10-22T22:54:29.743Z,74.60
2022-10-22T22:59:50.987Z,74.54
2022-10-22T23:05:12.011Z,74.54
2022-10-22T23:10:32.576Z,74.91
2022-10-22T23:15:53.079Z,74.81
2022-10-22T23:21:16.991Z,74.86
2022-10-22T23:26:43.842Z,74.89
2022-10-22T23:32:11.945Z,75.25
2022-10-22T23:37:32.694Z,74.94
2022-10-22T23:42:53.319Z,74.87
2022-10-22T23:48:13.959Z,74.92
2022-10-22T23:53:34.826Z,74.53
2022-10-22T23:58:56.418Z,74.54
